Terminal Aerodrome Forecast
Issued by NWS Wilmington, NC

Home | Current Version | Previous Version | Text Only | Print | Product List | Glossary On
Versions: 1 2 3 4 5 6 7 8 9 10 11 12 13 14 15 16 17 18 19
000
FTUS42 KILM 301125
TAFFLO
TAF
KFLO 301125Z 3012/0112 09004KT P6SM OVC010
      TEMPO 3012/3014 5SM BR OVC007
     FM301500 11008KT P6SM OVC018
     FM301900 12007KT P6SM BKN035
     FM010100 14006KT P6SM BKN015
     FM010500 14006KT P6SM OVC006=

USA.gov is the U.S. government's official web portal to all federal, state and local government web resources and services.